Terminal Aerodrome Forecast
Issued by NWS Quad Cities IA IL

Home | Current Version | Previous Version | Text Only | Print | Product List | Glossary On
Versions: 1 2 3 4 5 6 7 8 9 10 11 12 13 14 15 16 17 18 19 20 21 22 23 24 25 26 27 28 29 30 31 32 33
000
FTUS43 KDVN 292334
TAFMLI
TAF
KMLI 292334Z 3000/3024 05020G30KT P6SM -RA OVC012
     FM300100 05022G33KT 6SM BR OVC008
     FM300600 05017G24KT 5SM -DZ BR OVC006
     FM301800 07015G23KT 4SM -SHRA VCTS OVC010CB=

USA.gov is the U.S. government's official web portal to all federal, state and local government web resources and services.